Darstellungsparameter: Aktuell verwendete Einstellungen:
Skalierung der Graphiken ... ?
xyx+y,   Skalierungsfaktor:      Skalierung: Modus: x, Faktor: 1
Darstellungszeitraum ... ?
Vom - - bis: - -   Zeitraum: 15.10.2010 - 15.10.2010
Min/Max/Avg-Anzeige ... ?
Zeige MMA aktuell
Zeige MMA Monat
Zeige MMA alles
Zeige --A aktuell
Zeige --A Monat
Zeige --A alles
Keine MMA-Anzeige
MMA:
Average (ber die Originaldaten)
MMA-Basis: 15.10.2010 - 15.10.2010
Quicknavigation für Darstellung... ?
Tage:      1T, 2T, 3T, 5T -1T -2T -3T -5T +1T +2T +3T +5T
Wochen: 1W, 2W, 3W -1W -2W -3W +1W +2W +3W
Monate: 1M, 3M, 6M -1M -3M -6M +1M +3M +6M
Jahre:    1J, 3J, 5J, 10J -1J -3J -5J -10J +1J +3J +5J +10J
Nutze für die Darstellung ... ?
Originaldaten oder Mittelwerte auf ...
Stundenbasis Tagesbasis Wochenbasis
Monatsbasis Jahresbasis      Datenbasis: Original-Daten
Darstellen als:
Statistik (Auto) Statistik J:M      Darstellung:
Zur Graphik,    zurück zur Übersicht aller Sensoren.
 
Tabellarische Datenbersicht: ?
 
Sensor: Nr:Datum:Temp:Abs-Feuchte:Windchill:Wind:
Aussen-T/F 1 15-10-2010 00:03:05 9.5 C 6.74 g/m*3 9.5 C 0 km/h
2 15-10-2010 00:15:05 9.5 C 6.74 g/m*3 9.5 C 0 km/h
3 15-10-2010 00:27:05 9.5 C 6.74 g/m*3 9.5 C 0 km/h
4 15-10-2010 00:39:05 9.5 C 6.74 g/m*3 9.5 C 0 km/h
5 15-10-2010 00:51:05 9.5 C 6.83 g/m*3 9.5 C 0 km/h
6 15-10-2010 01:03:05 9.5 C 6.83 g/m*3 9.5 C 0 km/h
7 15-10-2010 01:15:05 9.5 C 6.83 g/m*3 9.5 C 0 km/h
8 15-10-2010 01:27:05 9.5 C 6.92 g/m*3 9.5 C 0 km/h
9 15-10-2010 01:39:05 9.4 C 6.87 g/m*3 9.4 C 0 km/h
10 15-10-2010 01:51:05 9.2 C 6.97 g/m*3 9.2 C 0 km/h
11 15-10-2010 02:03:05 9.2 C 7.05 g/m*3 9.2 C 0 km/h
12 15-10-2010 02:15:05 9.2 C 7.05 g/m*3 9.2 C 0 km/h
13 15-10-2010 02:27:05 9.3 C 7.19 g/m*3 9.3 C 0 km/h
14 15-10-2010 02:39:05 9.2 C 7.14 g/m*3 9.2 C 0 km/h
15 15-10-2010 02:51:06 9.3 C 7.19 g/m*3 9.3 C 0 km/h
16 15-10-2010 03:03:06 9.3 C 7.19 g/m*3 9.3 C 0 km/h
17 15-10-2010 03:15:06 9.3 C 7.28 g/m*3 9.3 C 0 km/h
18 15-10-2010 03:27:06 9.2 C 7.14 g/m*3 9.2 C 0 km/h
19 15-10-2010 03:39:06 9.3 C 7.28 g/m*3 9.3 C 0 km/h
20 15-10-2010 03:51:06 9.3 C 7.37 g/m*3 9.3 C 0 km/h
21 15-10-2010 04:03:06 9.3 C 7.37 g/m*3 9.3 C 0 km/h
22 15-10-2010 04:15:06 9.2 C 7.32 g/m*3 9.2 C 0 km/h
23 15-10-2010 04:27:06 9.3 C 7.37 g/m*3 9.3 C 0 km/h
24 15-10-2010 04:39:06 9.3 C 7.37 g/m*3 9.3 C 0 km/h
25 15-10-2010 04:51:06 9.3 C 7.37 g/m*3 9.3 C 0 km/h
Sensor: Nr:Datum:Temp:Abs-Feuchte:Windchill:Wind:
Aussen-T/F 26 15-10-2010 05:03:06 9.2 C 7.32 g/m*3 9.2 C 0 km/h
27 15-10-2010 05:15:06 9.2 C 7.32 g/m*3 9.2 C 0 km/h
28 15-10-2010 05:27:06 9.2 C 7.41 g/m*3 9.2 C 0 km/h
29 15-10-2010 05:39:06 9.2 C 7.5 g/m*3 9.2 C 0 km/h
30 15-10-2010 05:51:06 9.2 C 7.5 g/m*3 9.2 C 0 km/h
31 15-10-2010 06:03:06 9.3 C 7.55 g/m*3 9.3 C 0 km/h
32 15-10-2010 06:15:06 9.3 C 7.64 g/m*3 9.3 C 0 km/h
33 15-10-2010 06:27:06 9.3 C 7.64 g/m*3 9.3 C 0 km/h
34 15-10-2010 06:39:06 9.3 C 7.73 g/m*3 9.3 C 0 km/h
35 15-10-2010 06:51:07 9.3 C 7.73 g/m*3 9.3 C 0 km/h
36 15-10-2010 07:03:03 9.3 C 7.73 g/m*3 9.3 C 0 km/h
37 15-10-2010 07:15:04 9.3 C 7.73 g/m*3 9.3 C 0 km/h
38 15-10-2010 07:27:04 9.3 C 7.73 g/m*3 9.3 C 0 km/h
39 15-10-2010 07:39:03 9.3 C 7.73 g/m*3 9.3 C 0 km/h
40 15-10-2010 07:51:02 9.2 C 7.77 g/m*3 9.2 C 0 km/h
41 15-10-2010 08:03:01 9.2 C 7.77 g/m*3 9.2 C 0 km/h
42 15-10-2010 08:15:02 9.2 C 7.86 g/m*3 9.2 C 0 km/h
43 15-10-2010 08:27:02 9.2 C 7.86 g/m*3 9.2 C 0 km/h
44 15-10-2010 08:39:01 9.3 C 7.91 g/m*3 9.3 C 0 km/h
45 15-10-2010 08:51:01 9.3 C 7.91 g/m*3 9.3 C 0 km/h
46 15-10-2010 09:03:01 9.5 C 8.01 g/m*3 9.5 C 0 km/h
47 15-10-2010 09:15:02 9.6 C 8.15 g/m*3 9.6 C 0 km/h
48 15-10-2010 09:27:02 9.7 C 8.2 g/m*3 9.7 C 0 km/h
49 15-10-2010 09:39:01 10.1 C 8.32 g/m*3 10.1 C 0 km/h
50 15-10-2010 09:51:02 10.2 C 8.28 g/m*3 10.2 C 0 km/h
Sensor: Nr:Datum:Temp:Abs-Feuchte:Windchill:Wind:
Aussen-T/F 51 15-10-2010 10:03:01 10.4 C 8.19 g/m*3 10.4 C 0 km/h
52 15-10-2010 10:15:01 10.5 C 8.15 g/m*3 10.5 C 0 km/h
53 15-10-2010 10:27:01 10.7 C 8.05 g/m*3 10.7 C 0 km/h
54 15-10-2010 10:39:01 10.9 C 7.96 g/m*3 10.9 C 0 km/h
55 15-10-2010 10:51:02 11.1 C 7.96 g/m*3 11.1 C 0 km/h
56 15-10-2010 11:03:01 11.2 C 7.91 g/m*3 11.2 C 0 km/h
57 15-10-2010 11:15:02 11.3 C 7.75 g/m*3 11.3 C 0 km/h
58 15-10-2010 11:27:02 11.4 C 7.7 g/m*3 11.4 C 0 km/h
59 15-10-2010 11:39:02 11.8 C 7.79 g/m*3 11.8 C 0 km/h
60 15-10-2010 11:51:02 11.9 C 7.63 g/m*3 11.9 C 0 km/h
61 15-10-2010 12:03:03 12.3 C 7.6 g/m*3 12.3 C 0 km/h
62 15-10-2010 12:15:02 12 C 7.25 g/m*3 12 C 0 km/h
63 15-10-2010 12:27:02 11.9 C 7.31 g/m*3 11.9 C 0 km/h
64 15-10-2010 12:39:02 12.8 C 7.39 g/m*3 12.8 C 0 km/h
65 15-10-2010 12:51:01 13.1 C 7.07 g/m*3 13.1 C 0 km/h
66 15-10-2010 13:03:02 12.9 C 6.99 g/m*3 12.9 C 0 km/h
67 15-10-2010 13:15:01 12.9 C 6.99 g/m*3 12.9 C 0 km/h
68 15-10-2010 13:27:01 13.4 C 6.97 g/m*3 13.4 C 0 km/h
69 15-10-2010 13:39:01 14 C 6.88 g/m*3 14 C 0 km/h
70 15-10-2010 13:51:01 13.7 C 6.63 g/m*3 13.7 C 0 km/h
71 15-10-2010 14:03:01 13.4 C 6.63 g/m*3 13.4 C 0 km/h
72 15-10-2010 14:15:02 12.9 C 6.76 g/m*3 12.9 C 0 km/h
73 15-10-2010 14:27:02 12.7 C 6.9 g/m*3 12.7 C 0 km/h
74 15-10-2010 14:39:01 12.4 C 6.66 g/m*3 12.4 C 0 km/h
75 15-10-2010 14:51:03 12.5 C 6.82 g/m*3 12.5 C 0 km/h
Sensor: Nr:Datum:Temp:Abs-Feuchte:Windchill:Wind:
Aussen-T/F 76 15-10-2010 15:03:02 13 C 6.8 g/m*3 13 C 0 km/h
77 15-10-2010 15:15:02 12.9 C 6.76 g/m*3 12.9 C 0 km/h
78 15-10-2010 15:27:02 12.9 C 6.76 g/m*3 12.9 C 0 km/h
79 15-10-2010 15:39:03 13 C 6.58 g/m*3 13 C 0 km/h
80 15-10-2010 15:51:02 12.5 C 6.49 g/m*3 12.5 C 0 km/h
81 15-10-2010 16:03:02 12.5 C 6.71 g/m*3 12.5 C 0 km/h
82 15-10-2010 16:15:02 12.4 C 6.77 g/m*3 12.4 C 0 km/h
83 15-10-2010 16:27:02 12.2 C 6.69 g/m*3 12.2 C 0 km/h
84 15-10-2010 16:39:02 12.1 C 6.86 g/m*3 12.1 C 0 km/h
85 15-10-2010 16:51:02 12 C 6.93 g/m*3 12 C 0 km/h
86 15-10-2010 17:03:02 11.8 C 7.05 g/m*3 11.8 C 0 km/h
87 15-10-2010 17:15:02 11.7 C 7.11 g/m*3 11.7 C 0 km/h
88 15-10-2010 17:27:02 11.5 C 7.13 g/m*3 11.5 C 0 km/h
89 15-10-2010 17:39:02 11.5 C 7.02 g/m*3 11.5 C 0 km/h
90 15-10-2010 17:51:02 11.3 C 7.04 g/m*3 11.3 C 0 km/h
91 15-10-2010 18:03:02 11.1 C 7.05 g/m*3 11.1 C 0 km/h
92 15-10-2010 18:15:03 11 C 7.01 g/m*3 11 C 0 km/h
93 15-10-2010 18:27:03 10.9 C 7.06 g/m*3 10.9 C 0 km/h
94 15-10-2010 18:39:02 10.7 C 6.97 g/m*3 10.7 C 0 km/h
95 15-10-2010 18:51:01 10.7 C 7.07 g/m*3 10.7 C 0 km/h
96 15-10-2010 19:03:02 10.6 C 7.03 g/m*3 10.6 C 0 km/h
97 15-10-2010 19:15:01 10.5 C 6.98 g/m*3 10.5 C 0 km/h
98 15-10-2010 19:27:01 10.5 C 7.08 g/m*3 10.5 C 0 km/h
99 15-10-2010 19:39:01 10.5 C 6.98 g/m*3 10.5 C 0 km/h
100 15-10-2010 19:51:01 10.5 C 6.98 g/m*3 10.5 C 0 km/h
Sensor: Nr:Datum:Temp:Abs-Feuchte:Windchill:Wind:
Aussen-T/F 101 15-10-2010 20:03:01 10.4 C 6.94 g/m*3 10.4 C 0 km/h
102 15-10-2010 20:15:02 10.3 C 6.99 g/m*3 10.3 C 0 km/h
103 15-10-2010 20:27:02 10.2 C 6.95 g/m*3 10.2 C 0 km/h
104 15-10-2010 20:39:01 10.4 C 7.13 g/m*3 10.4 C 0 km/h
105 15-10-2010 20:51:03 10.5 C 7.08 g/m*3 10.5 C 0 km/h
106 15-10-2010 21:03:02 10.5 C 7.08 g/m*3 10.5 C 0 km/h
107 15-10-2010 21:15:02 10.4 C 7.04 g/m*3 10.4 C 0 km/h
108 15-10-2010 21:27:02 10.2 C 7.04 g/m*3 10.2 C 0 km/h
109 15-10-2010 21:39:03 9.8 C 7.33 g/m*3 9.8 C 0 km/h
110 15-10-2010 21:51:02 9.6 C 7.42 g/m*3 9.6 C 0 km/h
111 15-10-2010 22:03:02 9.5 C 7.55 g/m*3 9.5 C 0 km/h
112 15-10-2010 22:15:02 9.3 C 7.55 g/m*3 9.3 C 0 km/h
113 15-10-2010 22:27:02 9.3 C 7.64 g/m*3 9.3 C 0 km/h
114 15-10-2010 22:39:01 9.2 C 7.77 g/m*3 9.2 C 0 km/h
115 15-10-2010 22:52:04 9.2 C 7.86 g/m*3 9.2 C 0 km/h
116 15-10-2010 23:04:04 9.2 C 7.95 g/m*3 9.2 C 0 km/h
117 15-10-2010 23:16:04 9.3 C 8 g/m*3 9.3 C 0 km/h
118 15-10-2010 23:28:04 9.3 C 8.09 g/m*3 9.3 C 0 km/h
119 15-10-2010 23:40:04 9.1 C 8.07 g/m*3 9.1 C 0 km/h
120 15-10-2010 23:52:04 9.1 C 8.07 g/m*3 9.1 C 0 km/h

Legende:
   Min
   Max


Maximal/Minimal-Werte vom 15.10.2010 - 15.10.2010

Sensor Min Max Avg
Temp
(Aussen-T/F)
9.1 °C
15-10-2010  23:40:04
14 °C
15-10-2010  13:39:01
10.48 °C
Abs-Feuchte
(Aussen-T/F)
6.49 g/m*3
15-10-2010  15:51:02
8.32 g/m*3
15-10-2010  09:39:01
7.25 g/m*3
Windchill
(Aussen-T/F)
9.1 C
15-10-2010  23:40:04
14 C
15-10-2010  13:39:01
10.39 C

Die Daten stammen von einer Davis Vantage Pro 2 Wetter-Station und werden unter Linux mit der Software wview2wettercgi und aufbereitet. Alle Angaben erfolgen ohne Gewähr für ihre Vollständigkeit oder Richtigkeit.
Kontakt: Rainer Krienke krienke@uni-koblenz.de . Meine Webseiten an der Uni Koblenz oder privat.
Version: $Revision: 0.78 $